Time;durP1;ratioP1;P1;durP2;ratioP2;P2;SDS_P1;SDS_P2;PMS_P1;PMS_P2;Temp;Humidity;BMP_temperature;BMP_pressure;BME280_temperature;BME280_humidity;BME280_pressure;Samples;Min_cycle;Max_cycle;Signal;HPM_P1;HPM_P2
2022/04/05 00:01:47;;;;;;;3.00;1.70;;;17.50;47.50;;;;;;5014893;28;20025;-82
2022/04/05 00:04:14;;;;;;;2.30;1.80;;;17.50;47.50;;;;;;5015576;28;20030;-79
2022/04/05 00:06:40;;;;;;;2.95;1.80;;;17.50;47.50;;;;;;5016313;28;20076;-76
2022/04/05 00:09:05;;;;;;;3.00;1.83;;;17.50;47.60;;;;;;5014362;28;20424;-81
2022/04/05 00:11:31;;;;;;;2.00;1.50;;;17.50;47.70;;;;;;5014232;28;20034;-81
2022/04/05 00:13:57;;;;;;;2.22;1.75;;;17.50;47.60;;;;;;5015650;28;20068;-77
2022/04/05 00:16:23;;;;;;;3.72;1.70;;;17.40;47.60;;;;;;5014204;28;20027;-81
2022/04/05 00:18:50;;;;;;;3.38;2.05;;;17.40;47.70;;;;;;5015162;28;20073;-80
2022/04/05 00:21:16;;;;;;;3.65;1.70;;;17.40;47.80;;;;;;5013856;28;20022;-80
2022/04/05 00:23:42;;;;;;;3.20;1.90;;;17.40;47.70;;;;;;5013696;28;20030;-82
2022/04/05 00:26:09;;;;;;;3.33;1.80;;;17.40;47.90;;;;;;5013828;28;20093;-85
2022/04/05 00:28:34;;;;;;;2.55;1.63;;;17.30;47.80;;;;;;5013645;28;20075;-80
2022/04/05 00:31:01;;;;;;;3.75;2.00;;;17.40;47.90;;;;;;5013350;28;20030;-80
2022/04/05 00:33:28;;;;;;;2.58;1.70;;;17.40;47.80;;;;;;5013644;28;20461;-79
2022/04/05 00:35:57;;;;;;;3.17;2.03;;;17.40;47.90;;;;;;5014116;28;20033;-79
2022/04/05 00:38:23;;;;;;;4.80;2.30;;;17.30;48.00;;;;;;5013211;28;20034;-80
2022/04/05 00:40:50;;;;;;;2.78;1.98;;;17.40;48.10;;;;;;5013839;28;20025;-78
2022/04/05 00:43:17;;;;;;;3.90;1.83;;;17.30;48.10;;;;;;5014785;28;20014;-80
2022/04/05 00:45:43;;;;;;;3.15;1.90;;;17.30;48.10;;;;;;5014720;28;20034;-80
2022/04/05 00:48:09;;;;;;;2.92;1.80;;;17.40;48.10;;;;;;5029478;28;20014;-80
2022/04/05 00:50:36;;;;;;;3.85;2.05;;;17.30;47.90;;;;;;5017275;28;20030;-80
2022/04/05 00:53:03;;;;;;;2.75;1.80;;;17.30;48.20;;;;;;5001457;28;20056;-86
2022/04/05 00:55:29;;;;;;;3.60;2.10;;;17.30;48.20;;;;;;5018106;28;20026;-80
2022/04/05 00:57:56;;;;;;;2.72;1.80;;;17.30;48.20;;;;;;5016748;28;20046;-81
2022/04/05 01:00:23;;;;;;;3.15;1.95;;;17.30;48.20;;;;;;5017539;28;20040;-82
2022/04/05 01:02:49;;;;;;;2.78;1.85;;;17.30;48.20;;;;;;5017469;28;20018;-79
2022/04/05 01:05:17;;;;;;;3.78;2.10;;;17.30;48.10;;;;;;5017347;28;20469;-80
2022/04/05 01:07:42;;;;;;;2.40;1.77;;;17.30;48.20;;;;;;5001292;28;20030;-80
2022/04/05 01:10:10;;;;;;;4.38;1.90;;;17.30;48.70;;;;;;5017661;28;20041;-78
2022/04/05 01:12:36;;;;;;;3.90;2.05;;;17.30;48.20;;;;;;5017847;28;20020;-79
2022/04/05 01:15:02;;;;;;;3.38;1.98;;;17.30;48.30;;;;;;5018017;28;20037;-79
2022/04/05 01:17:28;;;;;;;2.65;1.90;;;17.30;48.30;;;;;;5019117;28;20014;-79
2022/04/05 01:19:54;;;;;;;2.63;1.90;;;17.30;48.30;;;;;;5017446;28;20057;-81
2022/04/05 01:22:20;;;;;;;3.83;2.28;;;17.30;48.30;;;;;;5018804;28;20054;-80
2022/04/05 01:24:46;;;;;;;3.03;2.00;;;17.30;48.10;;;;;;5019629;28;20520;-78
2022/04/05 01:27:17;;;;;;;3.50;2.00;;;17.30;48.30;;;;;;5019673;28;20389;-83
2022/04/05 01:29:43;;;;;;;2.80;1.98;;;17.30;48.40;;;;;;5019744;28;20065;-79
2022/04/05 01:32:09;;;;;;;3.58;2.00;;;17.30;48.40;;;;;;5019833;28;20010;-80
2022/04/05 01:34:36;;;;;;;2.92;2.00;;;17.30;48.30;;;;;;5019983;28;20014;-80
2022/04/05 01:37:07;;;;;;;4.13;2.10;;;17.30;48.30;;;;;;5019617;28;20025;-80
2022/04/05 01:39:33;;;;;;;2.95;2.33;;;17.20;48.30;;;;;;5018408;28;20028;-81
2022/04/05 01:42:01;;;;;;;3.42;2.10;;;17.30;48.50;;;;;;5019327;28;20544;-77
2022/04/05 01:44:28;;;;;;;3.28;2.17;;;17.20;48.50;;;;;;5018221;28;20048;-78
2022/04/05 01:46:56;;;;;;;4.63;2.00;;;17.30;48.40;;;;;;5018093;28;20521;-78
2022/04/05 01:49:22;;;;;;;3.60;2.00;;;17.30;48.50;;;;;;5002445;28;20098;-78
2022/04/05 01:51:49;;;;;;;4.03;2.00;;;17.30;48.50;;;;;;5019886;28;20480;-80
2022/04/05 01:54:15;;;;;;;3.60;2.08;;;17.20;48.50;;;;;;5019496;28;20113;-80
2022/04/05 01:56:49;;;;;;;3.22;2.10;;;17.20;48.50;;;;;;5018932;28;20014;-79
2022/04/05 01:59:24;;;;;;;3.22;2.08;;;17.20;48.50;;;;;;5018744;28;20080;-80
2022/04/05 02:01:49;;;;;;;3.75;2.05;;;17.20;48.70;;;;;;5018387;28;20113;-80
2022/04/05 02:04:16;;;;;;;3.55;2.08;;;17.20;48.60;;;;;;5018392;28;20030;-81
2022/04/05 02:06:43;;;;;;;4.18;2.28;;;17.20;48.60;;;;;;5018977;28;20087;-81
2022/04/05 02:09:08;;;;;;;2.60;2.10;;;17.20;48.60;;;;;;5018422;28;20025;-81
2022/04/05 02:11:34;;;;;;;3.25;2.05;;;17.20;48.50;;;;;;5018829;28;20030;-79
2022/04/05 02:14:00;;;;;;;2.40;1.92;;;17.20;48.70;;;;;;5019277;28;20021;-82
2022/04/05 02:16:26;;;;;;;2.35;2.03;;;17.20;48.70;;;;;;5002590;28;20027;-83
2022/04/05 02:18:52;;;;;;;3.55;2.08;;;17.20;48.70;;;;;;5017924;28;20042;-79
2022/04/05 02:21:18;;;;;;;3.40;2.00;;;17.20;48.50;;;;;;5016838;28;20037;-78
2022/04/05 02:23:44;;;;;;;2.88;1.98;;;17.20;48.70;;;;;;5017775;28;20033;-84
2022/04/05 02:26:12;;;;;;;4.15;2.20;;;17.20;48.60;;;;;;5016957;28;20013;-79
2022/04/05 02:28:39;;;;;;;3.03;1.92;;;17.20;48.70;;;;;;5019146;28;20033;-80
2022/04/05 02:31:05;;;;;;;4.10;2.08;;;17.20;48.70;;;;;;5018479;28;20030;-78
2022/04/05 02:33:30;;;;;;;2.78;1.95;;;17.20;48.70;;;;;;5016660;28;20033;-78
2022/04/05 02:35:56;;;;;;;2.92;2.30;;;17.20;48.70;;;;;;5019959;28;20068;-81
2022/04/05 02:38:23;;;;;;;3.55;2.25;;;17.20;48.60;;;;;;5018504;28;20030;-80
2022/04/05 02:40:50;;;;;;;3.00;2.03;;;17.20;48.70;;;;;;5018435;28;20010;-83
2022/04/05 02:43:16;;;;;;;3.70;2.30;;;17.20;48.70;;;;;;5018460;28;20018;-80
2022/04/05 02:45:43;;;;;;;4.25;2.20;;;17.20;48.80;;;;;;5017440;28;20041;-78
2022/04/05 02:48:09;;;;;;;4.32;2.42;;;17.20;48.70;;;;;;5018484;28;20010;-78
2022/04/05 02:50:36;;;;;;;3.97;2.45;;;17.10;49.30;;;;;;5017765;28;20022;-82
2022/04/05 02:53:02;;;;;;;2.78;2.08;;;17.10;48.70;;;;;;5017441;28;20492;-79
2022/04/05 02:55:28;;;;;;;3.63;2.17;;;17.10;48.60;;;;;;5017083;28;20022;-78
2022/04/05 02:57:54;;;;;;;3.55;2.20;;;17.10;48.80;;;;;;5000844;28;20152;-79
2022/04/05 03:00:22;;;;;;;3.50;2.10;;;17.10;48.70;;;;;;5016536;28;20078;-80
2022/04/05 03:02:48;;;;;;;2.97;2.25;;;17.10;48.80;;;;;;5016784;28;20049;-82
2022/04/05 03:05:15;;;;;;;3.00;1.98;;;17.10;48.90;;;;;;5017849;28;20026;-79
2022/04/05 03:07:41;;;;;;;3.47;2.15;;;17.10;48.90;;;;;;5019466;28;20033;-85
2022/04/05 03:10:08;;;;;;;3.80;2.30;;;17.10;48.90;;;;;;5001897;28;20026;-80
2022/04/05 03:12:35;;;;;;;3.80;2.10;;;17.10;48.90;;;;;;5001609;28;20022;-82
2022/04/05 03:15:04;;;;;;;3.28;2.05;;;17.10;48.90;;;;;;5018564;28;20076;-80
2022/04/05 03:17:31;;;;;;;3.67;2.25;;;17.10;48.90;;;;;;5019061;28;20014;-82
2022/04/05 03:19:59;;;;;;;2.78;2.17;;;17.10;48.90;;;;;;5017641;28;20053;-81
2022/04/05 03:22:26;;;;;;;2.20;2.00;;;17.10;48.80;;;;;;5016972;28;20401;-80
2022/04/05 03:24:52;;;;;;;3.20;2.20;;;17.10;48.80;;;;;;5017510;28;20029;-83
2022/04/05 03:27:19;;;;;;;3.05;2.22;;;17.10;48.90;;;;;;5017351;28;20497;-84
2022/04/05 03:29:45;;;;;;;3.70;2.25;;;17.20;49.00;;;;;;5017645;28;20101;-84
2022/04/05 03:32:12;;;;;;;2.67;2.10;;;17.10;49.00;;;;;;5017654;28;20370;-79
2022/04/05 03:34:40;;;;;;;4.60;2.47;;;17.10;49.00;;;;;;5016752;28;20045;-78
2022/04/05 03:37:06;;;;;;;5.35;2.40;;;17.10;49.00;;;;;;5014587;28;20022;-78
2022/04/05 03:39:32;;;;;;;3.45;2.30;;;17.10;48.90;;;;;;5013236;28;20072;-85
2022/04/05 03:41:58;;;;;;;2.42;2.10;;;17.10;49.20;;;;;;5014864;28;20072;-82
2022/04/05 03:44:24;;;;;;;3.45;2.30;;;17.10;48.90;;;;;;5013284;28;20101;-80
2022/04/05 03:46:51;;;;;;;3.92;2.03;;;17.10;49.00;;;;;;5013265;28;20025;-81
2022/04/05 03:49:17;;;;;;;3.42;2.00;;;17.10;49.10;;;;;;5013174;28;20033;-80
2022/04/05 03:51:43;;;;;;;3.25;2.25;;;17.20;48.80;;;;;;5014631;28;20025;-83
2022/04/05 03:54:09;;;;;;;2.50;2.00;;;17.30;48.50;;;;;;5017613;28;20018;-82
2022/04/05 03:56:35;;;;;;;2.85;2.15;;;17.50;47.80;;;;;;5016328;28;20022;-82
2022/04/05 03:59:01;;;;;;;3.50;2.40;;;17.70;47.20;;;;;;5017393;28;20045;-81
2022/04/05 04:01:27;;;;;;;3.50;2.20;;;17.80;46.60;;;;;;5016426;28;20093;-82
2022/04/05 04:03:54;;;;;;;3.53;2.00;;;18.00;46.40;;;;;;5016241;28;20032;-83
2022/04/05 04:06:20;;;;;;;2.92;2.10;;;18.10;46.20;;;;;;5016949;28;20014;-82
2022/04/05 04:08:46;;;;;;;3.90;2.08;;;18.10;45.90;;;;;;5016588;28;20350;-85
2022/04/05 04:11:11;;;;;;;3.15;2.00;;;18.30;45.70;;;;;;5015170;28;20041;-82
2022/04/05 04:13:37;;;;;;;4.40;2.28;;;18.40;45.40;;;;;;5015150;28;20025;-84
2022/04/05 04:16:04;;;;;;;3.10;2.13;;;18.50;45.10;;;;;;5014698;28;20022;-81
2022/04/05 04:18:30;;;;;;;3.53;2.00;;;18.60;44.80;;;;;;5014304;28;20046;-82
2022/04/05 04:20:56;;;;;;;2.88;1.90;;;18.70;44.50;;;;;;5017766;28;20389;-82
2022/04/05 04:23:22;;;;;;;2.45;2.00;;;18.90;44.30;;;;;;5020471;28;20022;-81
2022/04/05 04:25:48;;;;;;;2.38;1.80;;;19.00;44.00;;;;;;5021525;28;20034;-81
2022/04/05 04:28:14;;;;;;;2.72;2.00;;;19.10;43.80;;;;;;5005419;28;20030;-81
2022/04/05 04:30:40;;;;;;;3.30;2.10;;;19.20;43.60;;;;;;5021089;28;20084;-82
2022/04/05 04:33:08;;;;;;;2.85;2.00;;;19.30;43.30;;;;;;5022231;28;20077;-82
2022/04/05 04:35:34;;;;;;;3.88;2.15;;;19.40;43.00;;;;;;5019812;28;20022;-82
2022/04/05 04:38:00;;;;;;;3.60;2.22;;;19.50;42.90;;;;;;5018237;28;20017;-80
2022/04/05 04:40:27;;;;;;;3.33;2.15;;;19.60;42.70;;;;;;5018711;28;20092;-83
2022/04/05 04:42:53;;;;;;;2.78;1.90;;;19.70;42.40;;;;;;5017689;28;20461;-80
2022/04/05 04:45:19;;;;;;;2.45;1.90;;;19.80;42.30;;;;;;5018174;28;20060;-80
2022/04/05 04:47:45;;;;;;;2.58;1.70;;;19.80;42.10;;;;;;5018240;28;20014;-80
2022/04/05 04:50:11;;;;;;;3.00;1.90;;;19.90;41.90;;;;;;5002629;28;20030;-83
2022/04/05 04:52:37;;;;;;;2.20;1.80;;;20.00;41.70;;;;;;5019831;28;20078;-84
2022/04/05 04:55:04;;;;;;;2.40;1.70;;;20.10;41.60;;;;;;5002309;28;20026;-84
2022/04/05 04:57:30;;;;;;;2.58;1.90;;;20.20;41.50;;;;;;5019734;28;20022;-81
2022/04/05 04:59:56;;;;;;;3.00;1.80;;;20.20;41.30;;;;;;5020227;28;20370;-81
2022/04/05 05:02:23;;;;;;;2.45;1.70;;;20.30;41.20;;;;;;5019813;28;20034;-81
2022/04/05 05:05:18;;;;;;;2.95;1.70;;;20.20;41.20;;;;;;5020469;28;20014;-81
2022/04/05 05:07:45;;;;;;;2.13;1.65;;;20.30;41.20;;;;;;5021566;28;20026;-81
2022/04/05 05:10:11;;;;;;;2.95;1.95;;;20.40;41.10;;;;;;5021842;28;20026;-80
2022/04/05 05:12:40;;;;;;;2.50;1.65;;;20.40;41.00;;;;;;5027220;28;20037;-84
2022/04/05 05:15:18;;;;;;;2.58;1.80;;;20.40;40.90;;;;;;5005781;28;20010;-82
2022/04/05 05:17:44;;;;;;;2.30;1.63;;;20.50;40.80;;;;;;5020395;28;20076;-81
2022/04/05 05:20:10;;;;;;;2.70;1.75;;;20.50;40.70;;;;;;5020407;28;20045;-81
2022/04/05 05:22:37;;;;;;;2.80;2.03;;;20.50;40.60;;;;;;5018969;28;20029;-80
2022/04/05 05:25:03;;;;;;;2.38;1.70;;;20.60;40.60;;;;;;5003478;28;20388;-82
2022/04/05 05:27:30;;;;;;;1.90;1.60;;;20.60;40.60;;;;;;5020065;28;20033;-81
2022/04/05 05:29:57;;;;;;;2.45;1.70;;;20.60;40.60;;;;;;5019996;28;20026;-81
2022/04/05 05:32:24;;;;;;;1.98;1.52;;;20.60;40.50;;;;;;5021370;28;20025;-82
2022/04/05 05:34:50;;;;;;;3.30;1.38;;;20.60;40.40;;;;;;5019714;28;20026;-81
2022/04/05 05:37:16;;;;;;;2.60;1.75;;;20.70;40.40;;;;;;5017113;28;20014;-81
2022/04/05 05:39:42;;;;;;;5.03;1.70;;;20.70;40.40;;;;;;5017998;28;20512;-82
2022/04/05 05:42:08;;;;;;;2.60;1.77;;;20.70;40.30;;;;;;5019380;28;20057;-84
2022/04/05 05:44:34;;;;;;;1.70;1.40;;;20.90;40.30;;;;;;5018026;28;20034;-82
2022/04/05 05:47:00;;;;;;;2.33;1.70;;;20.80;40.20;;;;;;5018166;28;20073;-82
2022/04/05 05:49:26;;;;;;;2.60;1.60;;;20.90;40.20;;;;;;5016817;28;20022;-84
2022/04/05 05:51:52;;;;;;;2.13;1.60;;;20.90;40.10;;;;;;5019803;28;20018;-82
2022/04/05 05:54:19;;;;;;;2.90;1.70;;;20.90;40.10;;;;;;5017430;28;20033;-83
2022/04/05 05:56:44;;;;;;;2.03;1.40;;;20.90;40.10;;;;;;4984419;28;20026;-82
2022/04/05 05:59:11;;;;;;;2.72;1.70;;;20.90;40.10;;;;;;5017885;28;20060;-83
2022/04/05 06:01:37;;;;;;;1.83;1.58;;;20.90;40.10;;;;;;5017633;28;20029;-83
2022/04/05 06:04:02;;;;;;;3.00;1.60;;;20.90;40.10;;;;;;5016761;28;20041;-82
2022/04/05 06:06:29;;;;;;;2.33;1.52;;;21.00;40.10;;;;;;5018646;28;20022;-82
2022/04/05 06:08:56;;;;;;;2.13;1.48;;;21.00;40.60;;;;;;5017854;28;20022;-82
2022/04/05 06:11:22;;;;;;;2.00;1.50;;;21.00;40.10;;;;;;5017927;28;20037;-83
2022/04/05 06:13:52;;;;;;;3.50;1.80;;;21.00;40.00;;;;;;5019261;28;20017;-82
2022/04/05 06:16:18;;;;;;;3.53;1.67;;;21.00;40.00;;;;;;5002563;28;20010;-82
2022/04/05 06:18:47;;;;;;;3.08;1.83;;;21.10;39.90;;;;;;5002313;28;20092;-81
2022/04/05 06:21:22;;;;;;;2.10;1.58;;;21.10;39.90;;;;;;5020327;28;20021;-85
2022/04/05 06:23:48;;;;;;;2.20;1.70;;;21.10;39.90;;;;;;5006746;28;20117;-84
2022/04/05 06:26:14;;;;;;;2.92;1.70;;;21.10;39.90;;;;;;5021511;28;20049;-83
2022/04/05 06:28:40;;;;;;;2.53;1.70;;;21.10;40.00;;;;;;5008241;28;20038;-82
2022/04/05 06:31:07;;;;;;;2.05;1.70;;;21.10;39.90;;;;;;5028970;28;20018;-83
2022/04/05 06:33:33;;;;;;;3.28;1.92;;;21.10;39.90;;;;;;5027043;28;20026;-82
2022/04/05 06:35:59;;;;;;;3.58;1.70;;;21.20;39.90;;;;;;5016999;28;20101;-82
2022/04/05 06:38:26;;;;;;;4.00;2.00;;;21.20;39.80;;;;;;4998864;28;20030;-82
2022/04/05 06:40:52;;;;;;;2.88;1.70;;;21.20;39.90;;;;;;5014935;28;20022;-81
2022/04/05 06:43:25;;;;;;;1.85;1.40;;;21.20;39.90;;;;;;5016098;28;20029;-82
2022/04/05 06:45:51;;;;;;;3.45;1.60;;;21.20;40.00;;;;;;5016447;28;20014;-81
2022/04/05 06:48:17;;;;;;;2.72;1.38;;;21.20;39.90;;;;;;5017000;28;20097;-84
2022/04/05 06:50:43;;;;;;;2.15;1.63;;;21.20;39.90;;;;;;5000193;28;20026;-82
2022/04/05 06:53:09;;;;;;;2.63;1.80;;;21.20;39.90;;;;;;5020952;28;20051;-82
2022/04/05 06:55:36;;;;;;;2.45;1.65;;;21.30;40.00;;;;;;5021100;28;20021;-82
2022/04/05 06:58:01;;;;;;;3.83;2.00;;;21.30;40.00;;;;;;5020018;28;20014;-81
2022/04/05 07:00:28;;;;;;;2.92;1.75;;;21.30;40.10;;;;;;5019928;28;20021;-81
2022/04/05 07:02:55;;;;;;;2.10;1.60;;;21.30;40.10;;;;;;5019754;28;20018;-83
2022/04/05 07:05:21;;;;;;;2.95;1.75;;;21.30;40.10;;;;;;5017206;28;20072;-81
2022/04/05 07:07:47;;;;;;;2.22;1.77;;;21.30;40.10;;;;;;5014792;28;20029;-79
2022/04/05 07:10:14;;;;;;;2.17;1.60;;;21.30;40.00;;;;;;5014482;28;20473;-81
2022/04/05 07:12:41;;;;;;;2.05;1.58;;;21.30;40.10;;;;;;5014297;28;20051;-80
2022/04/05 07:15:09;;;;;;;2.65;1.65;;;21.40;40.20;;;;;;5014367;28;20014;-84
2022/04/05 07:17:34;;;;;;;2.70;1.80;;;21.40;40.10;;;;;;5015133;28;20014;-79
2022/04/05 07:20:00;;;;;;;2.33;1.60;;;21.40;40.00;;;;;;5018202;28;20034;-85
2022/04/05 07:22:26;;;;;;;3.75;1.80;;;21.40;40.10;;;;;;5024132;28;20040;-82
2022/04/05 07:24:52;;;;;;;3.88;2.38;;;21.40;40.10;;;;;;5022233;28;20021;-85
2022/04/05 07:27:19;;;;;;;3.78;1.80;;;21.40;40.10;;;;;;5027952;28;20041;-84
2022/04/05 07:29:45;;;;;;;5.97;1.90;;;21.50;40.20;;;;;;5029363;28;20049;-82
2022/04/05 07:32:11;;;;;;;5.50;1.90;;;21.50;40.20;;;;;;5036458;28;20018;-82
2022/04/05 07:34:39;;;;;;;3.75;2.03;;;21.50;40.20;;;;;;5035713;28;20018;-84
2022/04/05 07:37:11;;;;;;;4.45;1.95;;;21.50;40.30;;;;;;5035186;28;20053;-82
2022/04/05 07:39:37;;;;;;;4.93;1.80;;;21.50;40.30;;;;;;5019242;28;20021;-86
2022/04/05 07:42:05;;;;;;;5.63;2.33;;;21.50;40.20;;;;;;5017645;28;20049;-84
2022/04/05 07:44:33;;;;;;;4.70;1.98;;;21.50;40.30;;;;;;5015361;28;20022;-84
2022/04/05 07:46:59;;;;;;;8.45;2.15;;;21.50;40.30;;;;;;5007340;28;20018;-84
2022/04/05 07:49:26;;;;;;;5.93;2.08;;;21.60;40.40;;;;;;5023761;28;20033;-84
2022/04/05 07:51:52;;;;;;;6.38;2.13;;;21.50;40.30;;;;;;5020205;28;20025;-83
2022/04/05 07:54:18;;;;;;;5.18;2.30;;;21.60;40.40;;;;;;5025402;28;20021;-82
2022/04/05 07:56:44;;;;;;;6.47;2.53;;;21.60;40.30;;;;;;5009816;28;20018;-82
2022/04/05 07:59:10;;;;;;;4.15;2.10;;;21.60;40.50;;;;;;5033364;28;20034;-82
2022/04/05 08:01:36;;;;;;;5.80;2.20;;;21.60;40.60;;;;;;5034699;28;20022;-83
2022/04/05 08:04:03;;;;;;;4.25;2.10;;;21.60;40.60;;;;;;5034773;28;20057;-82
2022/04/05 08:06:29;;;;;;;5.72;2.00;;;21.60;40.60;;;;;;5004804;28;20370;-84
2022/04/05 08:08:55;;;;;;;6.80;2.05;;;21.60;40.60;;;;;;5016666;28;20022;-84
2022/04/05 08:11:21;;;;;;;4.45;2.10;;;21.60;40.60;;;;;;4999649;28;20080;-86
2022/04/05 08:13:47;;;;;;;4.22;1.75;;;21.60;40.60;;;;;;5017208;28;20018;-86
2022/04/05 08:16:13;;;;;;;3.83;1.95;;;21.70;40.60;;;;;;5000730;28;20026;-83
2022/04/05 08:18:39;;;;;;;7.43;2.00;;;21.70;40.70;;;;;;5015601;28;20073;-83
2022/04/05 08:21:05;;;;;;;6.35;2.10;;;21.70;40.70;;;;;;5025942;28;20018;-83
2022/04/05 08:23:31;;;;;;;6.30;2.35;;;21.70;40.80;;;;;;5018079;28;20017;-85
2022/04/05 08:25:58;;;;;;;5.18;2.08;;;21.70;40.80;;;;;;5018484;28;20026;-83
2022/04/05 08:28:24;;;;;;;5.18;2.10;;;21.70;40.80;;;;;;5034633;28;20010;-83
2022/04/05 08:30:50;;;;;;;5.63;2.28;;;21.70;40.90;;;;;;5034395;28;20025;-84
2022/04/05 08:33:16;;;;;;;6.10;2.13;;;21.70;40.90;;;;;;5033450;28;20026;-84
2022/04/05 08:35:42;;;;;;;4.13;1.92;;;21.70;40.90;;;;;;5050651;28;20026;-82
2022/04/05 08:38:08;;;;;;;5.68;2.28;;;21.70;41.00;;;;;;5034100;28;20029;-82
2022/04/05 08:40:34;;;;;;;3.17;2.05;;;21.80;41.00;;;;;;5032766;28;20014;-82
2022/04/05 08:42:59;;;;;;;4.80;2.10;;;21.80;40.80;;;;;;5014516;28;20015;-83
2022/04/05 08:45:26;;;;;;;3.88;2.30;;;21.80;40.80;;;;;;5032202;28;20049;-80
2022/04/05 08:47:53;;;;;;;3.33;2.05;;;21.80;40.80;;;;;;5032031;28;20018;-81
2022/04/05 08:50:22;;;;;;;5.20;2.35;;;21.90;40.80;;;;;;5019828;28;20054;-82
2022/04/05 08:52:48;;;;;;;5.70;2.38;;;21.90;40.80;;;;;;5018756;28;20065;-83
2022/04/05 08:55:14;;;;;;;3.47;2.35;;;21.80;40.90;;;;;;5019788;28;20497;-82
2022/04/05 08:57:41;;;;;;;4.03;2.00;;;21.90;40.90;;;;;;5017400;28;20034;-83
2022/04/05 09:00:09;;;;;;;2.85;2.10;;;21.90;41.00;;;;;;5018177;28;20022;-81
2022/04/05 09:02:34;;;;;;;3.95;1.95;;;21.90;41.00;;;;;;5017285;28;20144;-81
2022/04/05 09:05:01;;;;;;;3.60;2.20;;;21.90;41.00;;;;;;5016038;28;20511;-84
2022/04/05 09:07:37;;;;;;;5.10;2.30;;;21.90;41.10;;;;;;5014229;28;20025;-83
2022/04/05 09:10:14;;;;;;;5.53;2.50;;;21.80;41.10;;;;;;5015935;28;20050;-81
2022/04/05 09:12:44;;;;;;;5.00;2.20;;;21.90;41.20;;;;;;5017529;28;20102;-80
2022/04/05 09:15:18;;;;;;;4.95;2.25;;;21.90;41.30;;;;;;5017646;28;20495;-81
2022/04/05 09:17:45;;;;;;;4.28;2.38;;;21.90;41.30;;;;;;5017588;28;20037;-81
2022/04/05 09:20:11;;;;;;;3.45;2.53;;;21.90;41.20;;;;;;5017499;28;20018;-80
2022/04/05 09:22:37;;;;;;;5.50;2.45;;;21.90;41.20;;;;;;5000356;28;20022;-80
2022/04/05 09:25:08;;;;;;;7.22;2.80;;;21.90;41.20;;;;;;5016042;28;20033;-80
2022/04/05 09:28:08;;;;;;;4.57;2.20;;;21.90;41.20;;;;;;5016180;28;20025;-79
2022/04/05 09:30:36;;;;;;;3.17;2.20;;;21.90;41.30;;;;;;4959382;28;20035;-79
2022/04/05 09:33:04;;;;;;;4.95;2.22;;;21.90;41.40;;;;;;4960306;28;20035;-80
2022/04/05 09:35:42;;;;;;;5.80;2.17;;;22.00;41.40;;;;;;4965633;28;20015;-81
2022/04/05 09:38:16;;;;;;;5.57;2.38;;;22.00;41.30;;;;;;4968000;28;20019;-79
2022/04/05 09:40:43;;;;;;;5.20;2.40;;;22.00;41.40;;;;;;4982248;28;20037;-78
2022/04/05 09:43:15;;;;;;;4.88;2.40;;;22.10;41.50;;;;;;4980979;28;20026;-78
2022/04/05 09:45:58;;;;;;;5.22;2.22;;;22.10;41.40;;;;;;4978205;28;20031;-78
2022/04/05 09:48:35;;;;;;;4.32;2.10;;;22.00;41.60;;;;;;4979581;28;20034;-78
2022/04/05 09:51:09;;;;;;;4.78;2.30;;;22.10;41.60;;;;;;4960123;28;20019;-79
2022/04/05 09:53:56;;;;;;;3.50;2.25;;;22.00;41.50;;;;;;4959667;28;20512;-79
2022/04/05 09:56:32;;;;;;;5.50;2.20;;;22.10;41.60;;;;;;4975796;28;20101;-78
2022/04/05 09:59:06;;;;;;;3.47;2.25;;;22.00;41.60;;;;;;4976027;28;20058;-78
2022/04/05 10:01:36;;;;;;;4.28;2.15;;;22.10;41.60;;;;;;4975797;28;20062;-78
2022/04/05 10:04:06;;;;;;;3.97;2.10;;;22.00;41.70;;;;;;4960797;28;20081;-79
2022/04/05 10:06:33;;;;;;;4.55;2.22;;;22.10;41.80;;;;;;5005456;28;20030;-78
2022/04/05 10:09:06;;;;;;;6.55;2.35;;;22.10;41.80;;;;;;5001119;28;20049;-78
2022/04/05 10:11:35;;;;;;;4.18;2.35;;;22.10;41.80;;;;;;5018408;28;20046;-78
2022/04/05 10:14:01;;;;;;;3.28;2.15;;;22.10;41.80;;;;;;5016633;28;20006;-78
2022/04/05 10:16:28;;;;;;;3.05;2.05;;;22.10;41.70;;;;;;5000519;28;20026;-78
2022/04/05 10:19:04;;;;;;;3.60;2.20;;;22.10;41.70;;;;;;4999648;28;20128;-79
2022/04/05 10:21:31;;;;;;;4.95;2.90;;;22.20;41.80;;;;;;5001019;28;20075;-78
2022/04/05 10:23:58;;;;;;;5.60;2.45;;;22.10;41.80;;;;;;5017573;28;20045;-79
2022/04/05 10:26:28;;;;;;;4.57;2.20;;;22.10;41.90;;;;;;5016873;28;20037;-79
2022/04/05 10:28:58;;;;;;;4.07;2.28;;;22.10;41.90;;;;;;5000897;28;20029;-79
2022/04/05 10:31:40;;;;;;;4.18;2.40;;;22.20;41.90;;;;;;5017018;28;20037;-78
2022/04/05 10:34:24;;;;;;;4.28;2.40;;;22.10;41.80;;;;;;5017340;28;20014;-79
2022/04/05 10:37:29;;;;;;;4.28;2.22;;;22.10;41.90;;;;;;5019734;28;20014;-78
2022/04/05 10:39:58;;;;;;;13.27;3.10;;;22.20;41.80;;;;;;5018948;28;20025;-80
2022/04/05 10:42:25;;;;;;;7.07;2.53;;;22.20;41.90;;;;;;5019161;28;20022;-79
2022/04/05 10:45:09;;;;;;;5.45;2.20;;;22.20;41.80;;;;;;5002006;28;20022;-78
2022/04/05 10:48:13;;;;;;;4.68;2.42;;;22.20;41.70;;;;;;5021139;28;20028;-79
2022/04/05 10:50:40;;;;;;;5.85;2.33;;;22.20;41.70;;;;;;5019129;28;20461;-80
2022/04/05 10:53:18;;;;;;;3.95;2.38;;;22.20;41.80;;;;;;5018930;28;20013;-78
2022/04/05 10:56:03;;;;;;;4.30;2.58;;;22.30;41.80;;;;;;5020242;28;20032;-78
2022/04/05 10:58:39;;;;;;;5.45;2.33;;;22.30;41.70;;;;;;5019110;28;20014;-78
2022/04/05 11:01:14;;;;;;;4.05;2.30;;;22.30;41.70;;;;;;5018367;28;20093;-77
2022/04/05 11:03:40;;;;;;;5.57;2.75;;;22.30;41.60;;;;;;5001124;28;20006;-80
2022/04/05 11:06:06;;;;;;;4.13;2.30;;;22.40;41.60;;;;;;4999085;28;20025;-77
2022/04/05 11:08:33;;;;;;;5.63;2.30;;;22.30;41.50;;;;;;5016906;28;20542;-77
2022/04/05 11:11:04;;;;;;;3.83;2.25;;;22.40;41.50;;;;;;5000845;28;20077;-78
2022/04/05 11:13:35;;;;;;;4.95;2.22;;;22.50;41.40;;;;;;5017573;28;20010;-78
2022/04/05 11:16:02;;;;;;;6.38;2.50;;;22.50;41.40;;;;;;5019812;28;20018;-77
2022/04/05 11:18:29;;;;;;;5.20;2.63;;;22.50;41.30;;;;;;5018592;28;20042;-77
2022/04/05 11:20:59;;;;;;;4.05;2.72;;;22.50;41.30;;;;;;5018307;28;20018;-79
2022/04/05 11:23:43;;;;;;;5.27;2.20;;;22.60;41.20;;;;;;5001513;28;20021;-79
2022/04/05 11:26:41;;;;;;;4.38;2.25;;;22.70;41.10;;;;;;5001631;28;20437;-76
2022/04/05 11:29:20;;;;;;;3.75;2.22;;;22.60;41.00;;;;;;4978334;28;20038;-79
2022/04/05 11:31:48;;;;;;;4.03;2.63;;;22.70;41.00;;;;;;4980069;28;20039;-78
2022/04/05 11:34:34;;;;;;;7.03;2.50;;;22.60;41.10;;;;;;4977215;28;20023;-75
2022/04/05 11:37:00;;;;;;;4.50;2.80;;;22.60;41.10;;;;;;4957726;28;20022;-75
2022/04/05 11:39:25;;;;;;;4.32;2.40;;;22.60;41.10;;;;;;4957459;28;20035;-76
2022/04/05 11:42:01;;;;;;;4.93;2.30;;;22.60;41.10;;;;;;4973182;28;20418;-77
2022/04/05 11:44:27;;;;;;;7.22;2.58;;;22.60;41.10;;;;;;4973157;28;20097;-78
2022/04/05 11:46:55;;;;;;;5.90;2.67;;;22.70;41.10;;;;;;4973468;28;20093;-76
2022/04/05 11:49:21;;;;;;;6.40;2.50;;;22.70;41.00;;;;;;4973444;28;20498;-77
2022/04/05 11:51:48;;;;;;;3.63;2.22;;;22.70;41.00;;;;;;4974797;28;20549;-77
2022/04/05 11:54:19;;;;;;;3.50;2.20;;;22.70;41.00;;;;;;4958675;28;20587;-77
2022/04/05 11:56:45;;;;;;;4.28;2.30;;;22.70;41.00;;;;;;4973915;28;20054;-76
2022/04/05 11:59:12;;;;;;;3.95;2.35;;;22.70;41.00;;;;;;4973460;28;20085;-77
2022/04/05 12:01:40;;;;;;;5.78;2.40;;;22.70;41.00;;;;;;4956995;28;20025;-77
2022/04/05 12:04:10;;;;;;;3.08;2.40;;;22.70;41.00;;;;;;4983608;28;20029;-76
2022/04/05 12:06:38;;;;;;;;;;;22.70;41.00;;;;;;5015512;28;20473;-75
2022/04/05 12:09:15;;;;;;;5.93;2.47;;;22.70;40.90;;;;;;5016223;28;19912;-76
2022/04/05 12:11:48;;;;;;;7.05;2.45;;;22.70;41.00;;;;;;5015150;28;20508;-76
2022/04/05 12:14:15;;;;;;;10.02;2.70;;;22.70;41.00;;;;;;5015251;28;20018;-75
2022/04/05 12:16:57;;;;;;;3.75;2.30;;;22.70;41.20;;;;;;5015806;28;20014;-74
2022/04/05 12:19:24;;;;;;;6.10;2.50;;;22.60;41.30;;;;;;4999247;28;20042;-78
2022/04/05 12:21:57;;;;;;;5.53;2.40;;;22.60;41.40;;;;;;5017782;28;20519;-79
2022/04/05 12:24:24;;;;;;;4.43;2.17;;;22.60;41.30;;;;;;5000290;28;20504;-79
2022/04/05 12:26:49;;;;;;;6.85;2.40;;;22.60;41.40;;;;;;5013984;28;20012;-78
2022/04/05 12:29:15;;;;;;;5.25;3.00;;;22.60;41.40;;;;;;5014337;28;20010;-79
2022/04/05 12:31:41;;;;;;;5.32;2.30;;;22.60;41.40;;;;;;5013300;28;20026;-79
2022/04/05 12:34:11;;;;;;;7.22;2.92;;;22.60;41.50;;;;;;4998645;28;20010;-79
2022/04/05 12:36:39;;;;;;;6.28;2.40;;;22.60;41.40;;;;;;5015985;28;20037;-79
2022/04/05 12:39:08;;;;;;;6.47;2.67;;;22.60;41.50;;;;;;5016385;28;20461;-78
2022/04/05 12:41:40;;;;;;;6.72;2.58;;;22.60;41.50;;;;;;5016418;28;20025;-78
2022/04/05 12:44:11;;;;;;;4.32;2.92;;;22.60;41.40;;;;;;5015882;28;20028;-81
2022/04/05 12:46:50;;;;;;;4.53;2.38;;;22.70;41.30;;;;;;5019967;28;20018;-79
2022/04/05 12:49:19;;;;;;;4.53;2.67;;;22.70;41.20;;;;;;5021032;28;20021;-81
2022/04/05 12:51:45;;;;;;;5.15;2.35;;;22.70;41.30;;;;;;5023065;28;20026;-78
2022/04/05 12:54:35;;;;;;;6.40;2.53;;;22.70;41.30;;;;;;5023772;28;20018;-77